sensor_id;sensor_type;location;lat;lon;timestamp;P1;durP1;ratioP1;P2;durP2;ratioP2
2313;SDS011;42279;51.388;7.000;2023-06-10T00:01:50;11.00;;;10.40;;
2313;SDS011;42279;51.388;7.000;2023-06-10T00:04:16;12.17;;;11.43;;
2313;SDS011;42279;51.388;7.000;2023-06-10T00:06:45;11.27;;;10.73;;
2313;SDS011;42279;51.388;7.000;2023-06-10T00:09:13;12.00;;;11.20;;
2313;SDS011;42279;51.388;7.000;2023-06-10T00:11:39;10.67;;;10.17;;
2313;SDS011;42279;51.388;7.000;2023-06-10T00:14:05;10.63;;;10.03;;
2313;SDS011;42279;51.388;7.000;2023-06-10T00:16:30;9.73;;;9.27;;
2313;SDS011;42279;51.388;7.000;2023-06-10T00:18:56;11.40;;;10.70;;
2313;SDS011;42279;51.388;7.000;2023-06-10T00:21:26;11.83;;;11.23;;
2313;SDS011;42279;51.388;7.000;2023-06-10T00:23:52;11.83;;;11.23;;
2313;SDS011;42279;51.388;7.000;2023-06-10T00:26:20;11.20;;;10.60;;
2313;SDS011;42279;51.388;7.000;2023-06-10T00:28:46;11.53;;;10.70;;
2313;SDS011;42279;51.388;7.000;2023-06-10T00:31:12;11.27;;;10.67;;
2313;SDS011;42279;51.388;7.000;2023-06-10T00:33:38;11.63;;;11.00;;
2313;SDS011;42279;51.388;7.000;2023-06-10T00:36:03;12.07;;;11.40;;
2313;SDS011;42279;51.388;7.000;2023-06-10T00:38:29;11.97;;;11.27;;
2313;SDS011;42279;51.388;7.000;2023-06-10T00:40:55;12.27;;;11.47;;
2313;SDS011;42279;51.388;7.000;2023-06-10T00:43:20;12.73;;;11.67;;
2313;SDS011;42279;51.388;7.000;2023-06-10T00:45:46;12.03;;;11.43;;
2313;SDS011;42279;51.388;7.000;2023-06-10T00:48:11;12.30;;;11.40;;
2313;SDS011;42279;51.388;7.000;2023-06-10T00:50:37;12.83;;;11.80;;
2313;SDS011;42279;51.388;7.000;2023-06-10T00:53:04;11.63;;;11.03;;
2313;SDS011;42279;51.388;7.000;2023-06-10T00:55:30;13.13;;;12.33;;
2313;SDS011;42279;51.388;7.000;2023-06-10T00:57:57;12.63;;;11.93;;
2313;SDS011;42279;51.388;7.000;2023-06-10T01:00:24;12.07;;;11.50;;
2313;SDS011;42279;51.388;7.000;2023-06-10T01:02:50;11.77;;;11.10;;
2313;SDS011;42279;51.388;7.000;2023-06-10T01:05:18;12.03;;;11.43;;
2313;SDS011;42279;51.388;7.000;2023-06-10T01:07:50;11.73;;;11.23;;
2313;SDS011;42279;51.388;7.000;2023-06-10T01:13:03;12.80;;;12.10;;
2313;SDS011;42279;51.388;7.000;2023-06-10T01:15:33;13.67;;;12.57;;
2313;SDS011;42279;51.388;7.000;2023-06-10T01:18:00;12.40;;;11.77;;
2313;SDS011;42279;51.388;7.000;2023-06-10T01:20:33;11.90;;;11.07;;
2313;SDS011;42279;51.388;7.000;2023-06-10T01:23:01;12.67;;;12.00;;
2313;SDS011;42279;51.388;7.000;2023-06-10T01:25:28;12.27;;;11.43;;
2313;SDS011;42279;51.388;7.000;2023-06-10T01:30:59;12.80;;;12.07;;
2313;SDS011;42279;51.388;7.000;2023-06-10T01:33:37;13.13;;;12.20;;
2313;SDS011;42279;51.388;7.000;2023-06-10T01:36:07;12.00;;;11.30;;
2313;SDS011;42279;51.388;7.000;2023-06-10T01:38:36;12.83;;;11.83;;
2313;SDS011;42279;51.388;7.000;2023-06-10T01:41:11;13.47;;;12.50;;
2313;SDS011;42279;51.388;7.000;2023-06-10T01:43:39;12.13;;;11.40;;
2313;SDS011;42279;51.388;7.000;2023-06-10T01:46:07;13.60;;;12.80;;
2313;SDS011;42279;51.388;7.000;2023-06-10T01:48:33;13.73;;;12.80;;
2313;SDS011;42279;51.388;7.000;2023-06-10T01:50:59;13.57;;;12.87;;
2313;SDS011;42279;51.388;7.000;2023-06-10T01:53:27;14.63;;;13.63;;
2313;SDS011;42279;51.388;7.000;2023-06-10T01:55:53;14.70;;;13.50;;
2313;SDS011;42279;51.388;7.000;2023-06-10T01:58:19;13.50;;;12.70;;
2313;SDS011;42279;51.388;7.000;2023-06-10T02:00:44;14.20;;;13.30;;
2313;SDS011;42279;51.388;7.000;2023-06-10T02:03:10;13.33;;;12.63;;
2313;SDS011;42279;51.388;7.000;2023-06-10T02:05:35;13.67;;;12.77;;
2313;SDS011;42279;51.388;7.000;2023-06-10T02:08:01;13.87;;;12.93;;
2313;SDS011;42279;51.388;7.000;2023-06-10T02:10:27;13.27;;;12.37;;
2313;SDS011;42279;51.388;7.000;2023-06-10T02:12:52;13.30;;;12.60;;
2313;SDS011;42279;51.388;7.000;2023-06-10T02:15:18;13.27;;;12.43;;
2313;SDS011;42279;51.388;7.000;2023-06-10T02:17:43;12.70;;;11.70;;
2313;SDS011;42279;51.388;7.000;2023-06-10T02:20:14;13.30;;;12.30;;
2313;SDS011;42279;51.388;7.000;2023-06-10T02:22:39;13.73;;;12.83;;
2313;SDS011;42279;51.388;7.000;2023-06-10T02:25:05;12.80;;;12.10;;
2313;SDS011;42279;51.388;7.000;2023-06-10T02:27:31;13.43;;;12.53;;
2313;SDS011;42279;51.388;7.000;2023-06-10T02:29:57;13.13;;;12.43;;
2313;SDS011;42279;51.388;7.000;2023-06-10T02:32:23;13.17;;;12.27;;
2313;SDS011;42279;51.388;7.000;2023-06-10T02:34:48;13.50;;;12.80;;
2313;SDS011;42279;51.388;7.000;2023-06-10T02:37:15;15.47;;;14.47;;
2313;SDS011;42279;51.388;7.000;2023-06-10T02:39:40;15.40;;;14.30;;
2313;SDS011;42279;51.388;7.000;2023-06-10T02:42:06;14.90;;;14.00;;
2313;SDS011;42279;51.388;7.000;2023-06-10T02:44:32;15.03;;;14.13;;
2313;SDS011;42279;51.388;7.000;2023-06-10T02:46:58;15.10;;;14.00;;
2313;SDS011;42279;51.388;7.000;2023-06-10T02:49:24;13.90;;;13.20;;
2313;SDS011;42279;51.388;7.000;2023-06-10T02:51:52;13.23;;;12.63;;
2313;SDS011;42279;51.388;7.000;2023-06-10T02:54:19;14.50;;;13.70;;
2313;SDS011;42279;51.388;7.000;2023-06-10T02:56:45;14.80;;;14.00;;
2313;SDS011;42279;51.388;7.000;2023-06-10T02:59:13;14.53;;;13.53;;
2313;SDS011;42279;51.388;7.000;2023-06-10T03:01:39;15.87;;;14.87;;
2313;SDS011;42279;51.388;7.000;2023-06-10T03:04:04;15.10;;;14.20;;
2313;SDS011;42279;51.388;7.000;2023-06-10T03:06:31;15.00;;;14.10;;
2313;SDS011;42279;51.388;7.000;2023-06-10T03:08:59;14.77;;;13.87;;
2313;SDS011;42279;51.388;7.000;2023-06-10T03:11:25;15.00;;;14.00;;
2313;SDS011;42279;51.388;7.000;2023-06-10T03:13:51;14.43;;;13.60;;
2313;SDS011;42279;51.388;7.000;2023-06-10T03:16:18;14.90;;;14.00;;
2313;SDS011;42279;51.388;7.000;2023-06-10T03:18:44;13.87;;;13.00;;
2313;SDS011;42279;51.388;7.000;2023-06-10T03:21:10;14.40;;;13.50;;
2313;SDS011;42279;51.388;7.000;2023-06-10T03:23:36;14.77;;;13.87;;
2313;SDS011;42279;51.388;7.000;2023-06-10T03:26:02;14.90;;;13.97;;
2313;SDS011;42279;51.388;7.000;2023-06-10T03:28:27;14.83;;;13.87;;
2313;SDS011;42279;51.388;7.000;2023-06-10T03:30:53;14.50;;;13.70;;
2313;SDS011;42279;51.388;7.000;2023-06-10T03:33:18;14.30;;;13.30;;
2313;SDS011;42279;51.388;7.000;2023-06-10T03:35:45;15.47;;;14.37;;
2313;SDS011;42279;51.388;7.000;2023-06-10T03:38:10;14.70;;;13.80;;
2313;SDS011;42279;51.388;7.000;2023-06-10T03:40:36;14.27;;;13.47;;
2313;SDS011;42279;51.388;7.000;2023-06-10T03:43:02;16.57;;;14.53;;
2313;SDS011;42279;51.388;7.000;2023-06-10T03:45:27;14.57;;;13.40;;
2313;SDS011;42279;51.388;7.000;2023-06-10T03:47:53;16.10;;;14.87;;
2313;SDS011;42279;51.388;7.000;2023-06-10T03:50:19;15.20;;;14.30;;
2313;SDS011;42279;51.388;7.000;2023-06-10T03:52:45;14.57;;;13.67;;
2313;SDS011;42279;51.388;7.000;2023-06-10T03:55:11;16.67;;;15.30;;
2313;SDS011;42279;51.388;7.000;2023-06-10T03:57:38;14.00;;;13.23;;
2313;SDS011;42279;51.388;7.000;2023-06-10T04:00:04;15.33;;;14.33;;
2313;SDS011;42279;51.388;7.000;2023-06-10T04:02:37;14.47;;;13.57;;
2313;SDS011;42279;51.388;7.000;2023-06-10T04:05:06;14.23;;;13.13;;
2313;SDS011;42279;51.388;7.000;2023-06-10T04:07:32;14.70;;;13.50;;
2313;SDS011;42279;51.388;7.000;2023-06-10T04:09:59;14.60;;;13.60;;
2313;SDS011;42279;51.388;7.000;2023-06-10T04:12:25;14.83;;;13.90;;
2313;SDS011;42279;51.388;7.000;2023-06-10T04:14:50;15.53;;;14.43;;
2313;SDS011;42279;51.388;7.000;2023-06-10T04:17:17;15.13;;;14.13;;
2313;SDS011;42279;51.388;7.000;2023-06-10T04:19:42;16.07;;;14.87;;
2313;SDS011;42279;51.388;7.000;2023-06-10T04:22:08;16.23;;;15.07;;
2313;SDS011;42279;51.388;7.000;2023-06-10T04:24:33;15.90;;;14.70;;
2313;SDS011;42279;51.388;7.000;2023-06-10T04:26:59;15.23;;;14.33;;
2313;SDS011;42279;51.388;7.000;2023-06-10T04:29:25;15.20;;;14.30;;
2313;SDS011;42279;51.388;7.000;2023-06-10T04:31:51;16.13;;;15.03;;
2313;SDS011;42279;51.388;7.000;2023-06-10T04:34:16;17.60;;;15.93;;
2313;SDS011;42279;51.388;7.000;2023-06-10T04:36:42;14.73;;;13.73;;
2313;SDS011;42279;51.388;7.000;2023-06-10T04:39:07;16.50;;;15.40;;
2313;SDS011;42279;51.388;7.000;2023-06-10T04:41:33;15.60;;;14.70;;
2313;SDS011;42279;51.388;7.000;2023-06-10T04:43:58;15.63;;;14.53;;
2313;SDS011;42279;51.388;7.000;2023-06-10T04:46:24;15.87;;;14.87;;
2313;SDS011;42279;51.388;7.000;2023-06-10T04:48:50;16.83;;;15.47;;
2313;SDS011;42279;51.388;7.000;2023-06-10T04:51:15;17.20;;;16.13;;
2313;SDS011;42279;51.388;7.000;2023-06-10T04:53:41;18.03;;;16.13;;
2313;SDS011;42279;51.388;7.000;2023-06-10T04:56:07;15.33;;;14.43;;
2313;SDS011;42279;51.388;7.000;2023-06-10T04:58:33;15.20;;;14.23;;
2313;SDS011;42279;51.388;7.000;2023-06-10T05:00:59;16.67;;;15.47;;
2313;SDS011;42279;51.388;7.000;2023-06-10T05:03:25;16.13;;;14.83;;
2313;SDS011;42279;51.388;7.000;2023-06-10T05:05:51;15.47;;;14.47;;
2313;SDS011;42279;51.388;7.000;2023-06-10T05:08:16;15.60;;;14.70;;
2313;SDS011;42279;51.388;7.000;2023-06-10T05:10:42;16.87;;;15.87;;
2313;SDS011;42279;51.388;7.000;2023-06-10T05:13:08;16.77;;;15.03;;
2313;SDS011;42279;51.388;7.000;2023-06-10T05:15:33;15.93;;;14.80;;
2313;SDS011;42279;51.388;7.000;2023-06-10T05:17:59;17.77;;;16.37;;
2313;SDS011;42279;51.388;7.000;2023-06-10T05:20:25;16.50;;;15.27;;
2313;SDS011;42279;51.388;7.000;2023-06-10T05:22:50;15.37;;;14.50;;
2313;SDS011;42279;51.388;7.000;2023-06-10T05:25:17;16.37;;;15.23;;
2313;SDS011;42279;51.388;7.000;2023-06-10T05:27:42;15.80;;;14.70;;
2313;SDS011;42279;51.388;7.000;2023-06-10T05:30:09;17.00;;;15.90;;
2313;SDS011;42279;51.388;7.000;2023-06-10T05:32:35;15.83;;;14.83;;
2313;SDS011;42279;51.388;7.000;2023-06-10T05:35:01;17.50;;;16.10;;
2313;SDS011;42279;51.388;7.000;2023-06-10T05:37:27;16.07;;;14.87;;
2313;SDS011;42279;51.388;7.000;2023-06-10T05:39:52;16.97;;;15.50;;
2313;SDS011;42279;51.388;7.000;2023-06-10T05:42:18;13.77;;;12.87;;
2313;SDS011;42279;51.388;7.000;2023-06-10T05:44:43;16.20;;;14.90;;
2313;SDS011;42279;51.388;7.000;2023-06-10T05:47:09;14.47;;;13.57;;
2313;SDS011;42279;51.388;7.000;2023-06-10T05:49:34;16.03;;;15.03;;
2313;SDS011;42279;51.388;7.000;2023-06-10T05:52:00;15.77;;;14.87;;
2313;SDS011;42279;51.388;7.000;2023-06-10T05:54:26;15.00;;;13.87;;
2313;SDS011;42279;51.388;7.000;2023-06-10T05:56:52;15.13;;;14.13;;
2313;SDS011;42279;51.388;7.000;2023-06-10T05:59:17;15.33;;;13.97;;
2313;SDS011;42279;51.388;7.000;2023-06-10T06:01:43;14.07;;;13.27;;
2313;SDS011;42279;51.388;7.000;2023-06-10T06:04:08;14.67;;;13.83;;
2313;SDS011;42279;51.388;7.000;2023-06-10T06:06:34;15.30;;;14.20;;
2313;SDS011;42279;51.388;7.000;2023-06-10T06:09:00;15.00;;;13.90;;
2313;SDS011;42279;51.388;7.000;2023-06-10T06:11:26;13.83;;;12.90;;
2313;SDS011;42279;51.388;7.000;2023-06-10T06:13:52;13.80;;;13.00;;
2313;SDS011;42279;51.388;7.000;2023-06-10T06:16:17;14.27;;;12.97;;
2313;SDS011;42279;51.388;7.000;2023-06-10T06:18:43;13.57;;;12.67;;
2313;SDS011;42279;51.388;7.000;2023-06-10T06:21:09;12.63;;;11.90;;
2313;SDS011;42279;51.388;7.000;2023-06-10T06:23:34;13.33;;;12.63;;
2313;SDS011;42279;51.388;7.000;2023-06-10T06:26:00;13.17;;;12.20;;
2313;SDS011;42279;51.388;7.000;2023-06-10T06:28:26;15.17;;;13.17;;
2313;SDS011;42279;51.388;7.000;2023-06-10T06:30:54;12.10;;;11.30;;
2313;SDS011;42279;51.388;7.000;2023-06-10T06:33:21;12.30;;;11.60;;
2313;SDS011;42279;51.388;7.000;2023-06-10T06:35:46;11.60;;;10.90;;
2313;SDS011;42279;51.388;7.000;2023-06-10T06:38:12;13.33;;;12.30;;
2313;SDS011;42279;51.388;7.000;2023-06-10T06:40:37;12.33;;;11.63;;
2313;SDS011;42279;51.388;7.000;2023-06-10T06:43:03;11.90;;;11.10;;
2313;SDS011;42279;51.388;7.000;2023-06-10T06:45:28;11.03;;;10.50;;
2313;SDS011;42279;51.388;7.000;2023-06-10T06:47:54;10.93;;;10.33;;
2313;SDS011;42279;51.388;7.000;2023-06-10T06:50:21;11.30;;;10.60;;
2313;SDS011;42279;51.388;7.000;2023-06-10T06:52:46;11.10;;;10.30;;
2313;SDS011;42279;51.388;7.000;2023-06-10T06:55:12;11.40;;;10.67;;
2313;SDS011;42279;51.388;7.000;2023-06-10T06:57:37;10.33;;;9.63;;
2313;SDS011;42279;51.388;7.000;2023-06-10T07:00:03;10.43;;;9.83;;
2313;SDS011;42279;51.388;7.000;2023-06-10T07:02:29;9.93;;;9.33;;
2313;SDS011;42279;51.388;7.000;2023-06-10T07:04:57;9.90;;;9.50;;
2313;SDS011;42279;51.388;7.000;2023-06-10T07:07:23;9.07;;;8.67;;
2313;SDS011;42279;51.388;7.000;2023-06-10T07:09:49;10.13;;;9.50;;
2313;SDS011;42279;51.388;7.000;2023-06-10T07:12:15;9.73;;;9.30;;
2313;SDS011;42279;51.388;7.000;2023-06-10T07:14:41;9.97;;;9.37;;
2313;SDS011;42279;51.388;7.000;2023-06-10T07:17:06;10.43;;;9.50;;
2313;SDS011;42279;51.388;7.000;2023-06-10T07:19:32;9.73;;;9.23;;
2313;SDS011;42279;51.388;7.000;2023-06-10T07:21:58;9.80;;;9.10;;
2313;SDS011;42279;51.388;7.000;2023-06-10T07:24:23;9.03;;;8.57;;
2313;SDS011;42279;51.388;7.000;2023-06-10T07:26:50;9.07;;;8.60;;
2313;SDS011;42279;51.388;7.000;2023-06-10T07:29:15;10.03;;;9.50;;
2313;SDS011;42279;51.388;7.000;2023-06-10T07:31:41;9.87;;;8.90;;
2313;SDS011;42279;51.388;7.000;2023-06-10T07:34:07;8.40;;;8.00;;
2313;SDS011;42279;51.388;7.000;2023-06-10T07:36:33;8.00;;;7.50;;
2313;SDS011;42279;51.388;7.000;2023-06-10T07:39:01;13.07;;;12.07;;
2313;SDS011;42279;51.388;7.000;2023-06-10T07:41:27;9.00;;;8.20;;
2313;SDS011;42279;51.388;7.000;2023-06-10T07:43:53;8.37;;;8.07;;
2313;SDS011;42279;51.388;7.000;2023-06-10T07:46:22;8.13;;;7.80;;
2313;SDS011;42279;51.388;7.000;2023-06-10T07:48:49;7.53;;;7.23;;
2313;SDS011;42279;51.388;7.000;2023-06-10T07:51:15;7.23;;;6.73;;
2313;SDS011;42279;51.388;7.000;2023-06-10T07:53:41;7.63;;;7.17;;
2313;SDS011;42279;51.388;7.000;2023-06-10T07:56:07;8.17;;;7.87;;
2313;SDS011;42279;51.388;7.000;2023-06-10T07:58:33;8.63;;;8.33;;
2313;SDS011;42279;51.388;7.000;2023-06-10T08:00:58;8.00;;;7.30;;
2313;SDS011;42279;51.388;7.000;2023-06-10T08:03:24;7.43;;;7.03;;
2313;SDS011;42279;51.388;7.000;2023-06-10T08:05:49;7.53;;;7.30;;
2313;SDS011;42279;51.388;7.000;2023-06-10T08:08:15;7.60;;;7.30;;
2313;SDS011;42279;51.388;7.000;2023-06-10T08:10:41;7.77;;;7.37;;
2313;SDS011;42279;51.388;7.000;2023-06-10T08:13:07;8.63;;;7.93;;
2313;SDS011;42279;51.388;7.000;2023-06-10T08:15:33;11.50;;;10.90;;
2313;SDS011;42279;51.388;7.000;2023-06-10T08:18:01;8.57;;;8.20;;
2313;SDS011;42279;51.388;7.000;2023-06-10T08:20:27;8.47;;;7.93;;
2313;SDS011;42279;51.388;7.000;2023-06-10T08:22:53;8.63;;;8.13;;
2313;SDS011;42279;51.388;7.000;2023-06-10T08:25:18;8.20;;;7.80;;
2313;SDS011;42279;51.388;7.000;2023-06-10T08:27:46;10.37;;;7.40;;
2313;SDS011;42279;51.388;7.000;2023-06-10T08:30:12;8.00;;;7.70;;
2313;SDS011;42279;51.388;7.000;2023-06-10T08:32:38;7.63;;;7.23;;
2313;SDS011;42279;51.388;7.000;2023-06-10T08:35:06;8.90;;;8.37;;
2313;SDS011;42279;51.388;7.000;2023-06-10T08:37:32;8.03;;;7.43;;
2313;SDS011;42279;51.388;7.000;2023-06-10T08:39:58;7.70;;;7.30;;
2313;SDS011;42279;51.388;7.000;2023-06-10T08:44:58;8.10;;;7.63;;
2313;SDS011;42279;51.388;7.000;2023-06-10T08:47:27;7.97;;;7.47;;
2313;SDS011;42279;51.388;7.000;2023-06-10T08:49:56;7.60;;;7.40;;
2313;SDS011;42279;51.388;7.000;2023-06-10T08:52:26;8.37;;;7.77;;
2313;SDS011;42279;51.388;7.000;2023-06-10T08:55:07;7.33;;;7.03;;
2313;SDS011;42279;51.388;7.000;2023-06-10T08:57:37;7.20;;;6.97;;
2313;SDS011;42279;51.388;7.000;2023-06-10T09:00:04;7.30;;;6.97;;
2313;SDS011;42279;51.388;7.000;2023-06-10T09:02:31;7.23;;;6.93;;
2313;SDS011;42279;51.388;7.000;2023-06-10T09:05:00;7.67;;;7.20;;
2313;SDS011;42279;51.388;7.000;2023-06-10T09:07:27;8.53;;;8.03;;
2313;SDS011;42279;51.388;7.000;2023-06-10T09:09:52;8.00;;;7.37;;
2313;SDS011;42279;51.388;7.000;2023-06-10T09:12:19;6.97;;;6.77;;
2313;SDS011;42279;51.388;7.000;2023-06-10T09:14:45;8.00;;;7.70;;
2313;SDS011;42279;51.388;7.000;2023-06-10T09:17:11;7.90;;;7.50;;
2313;SDS011;42279;51.388;7.000;2023-06-10T09:19:36;8.47;;;7.97;;
2313;SDS011;42279;51.388;7.000;2023-06-10T09:22:03;7.63;;;7.43;;
2313;SDS011;42279;51.388;7.000;2023-06-10T09:24:29;7.07;;;6.80;;
2313;SDS011;42279;51.388;7.000;2023-06-10T09:27:08;7.10;;;6.80;;
2313;SDS011;42279;51.388;7.000;2023-06-10T09:32:19;7.43;;;7.00;;
2313;SDS011;42279;51.388;7.000;2023-06-10T09:34:45;7.00;;;6.73;;
2313;SDS011;42279;51.388;7.000;2023-06-10T09:37:11;7.67;;;7.30;;
2313;SDS011;42279;51.388;7.000;2023-06-10T09:39:39;8.00;;;7.70;;
2313;SDS011;42279;51.388;7.000;2023-06-10T09:42:18;7.27;;;6.97;;
2313;SDS011;42279;51.388;7.000;2023-06-10T09:44:50;7.20;;;6.70;;
2313;SDS011;42279;51.388;7.000;2023-06-10T09:47:22;6.50;;;6.30;;
2313;SDS011;42279;51.388;7.000;2023-06-10T09:49:48;7.23;;;6.77;;
2313;SDS011;42279;51.388;7.000;2023-06-10T09:52:20;8.10;;;7.60;;
2313;SDS011;42279;51.388;7.000;2023-06-10T09:54:47;8.80;;;8.30;;
2313;SDS011;42279;51.388;7.000;2023-06-10T09:57:13;8.80;;;8.30;;
2313;SDS011;42279;51.388;7.000;2023-06-10T09:59:39;8.00;;;7.53;;
2313;SDS011;42279;51.388;7.000;2023-06-10T10:02:05;7.23;;;6.83;;
2313;SDS011;42279;51.388;7.000;2023-06-10T10:04:31;7.20;;;6.90;;
2313;SDS011;42279;51.388;7.000;2023-06-10T10:06:59;7.47;;;7.10;;
2313;SDS011;42279;51.388;7.000;2023-06-10T10:09:25;7.13;;;6.73;;
2313;SDS011;42279;51.388;7.000;2023-06-10T10:11:50;7.07;;;6.57;;
2313;SDS011;42279;51.388;7.000;2023-06-10T10:14:23;7.23;;;7.03;;
2313;SDS011;42279;51.388;7.000;2023-06-10T10:16:50;7.00;;;6.53;;
2313;SDS011;42279;51.388;7.000;2023-06-10T10:19:21;6.80;;;6.50;;
2313;SDS011;42279;51.388;7.000;2023-06-10T10:21:52;6.97;;;6.57;;
2313;SDS011;42279;51.388;7.000;2023-06-10T10:24:23;7.10;;;6.70;;
2313;SDS011;42279;51.388;7.000;2023-06-10T10:26:55;8.27;;;7.57;;
2313;SDS011;42279;51.388;7.000;2023-06-10T10:29:30;7.80;;;7.20;;
2313;SDS011;42279;51.388;7.000;2023-06-10T10:31:59;7.50;;;7.20;;
2313;SDS011;42279;51.388;7.000;2023-06-10T10:34:30;11.33;;;7.63;;
2313;SDS011;42279;51.388;7.000;2023-06-10T10:37:05;7.93;;;7.53;;
2313;SDS011;42279;51.388;7.000;2023-06-10T10:39:33;8.40;;;7.70;;
2313;SDS011;42279;51.388;7.000;2023-06-10T10:42:01;7.60;;;7.20;;
2313;SDS011;42279;51.388;7.000;2023-06-10T10:44:29;7.43;;;7.07;;
2313;SDS011;42279;51.388;7.000;2023-06-10T10:46:55;7.37;;;7.07;;
2313;SDS011;42279;51.388;7.000;2023-06-10T10:49:22;8.63;;;6.73;;
2313;SDS011;42279;51.388;7.000;2023-06-10T10:51:56;6.23;;;5.93;;
2313;SDS011;42279;51.388;7.000;2023-06-10T10:54:32;7.10;;;7.00;;
2313;SDS011;42279;51.388;7.000;2023-06-10T10:57:15;7.50;;;7.10;;
2313;SDS011;42279;51.388;7.000;2023-06-10T11:02:34;7.00;;;6.50;;
2313;SDS011;42279;51.388;7.000;2023-06-10T11:05:14;6.77;;;6.47;;
2313;SDS011;42279;51.388;7.000;2023-06-10T11:07:53;6.70;;;6.43;;
2313;SDS011;42279;51.388;7.000;2023-06-10T11:10:29;7.10;;;6.90;;
2313;SDS011;42279;51.388;7.000;2023-06-10T11:12:59;6.20;;;5.97;;
2313;SDS011;42279;51.388;7.000;2023-06-10T11:15:27;6.50;;;6.10;;
2313;SDS011;42279;51.388;7.000;2023-06-10T11:18:25;7.23;;;6.83;;
2313;SDS011;42279;51.388;7.000;2023-06-10T11:20:55;6.73;;;6.50;;
2313;SDS011;42279;51.388;7.000;2023-06-10T11:34:02;7.10;;;6.80;;
2313;SDS011;42279;51.388;7.000;2023-06-10T11:36:32;8.03;;;7.43;;
2313;SDS011;42279;51.388;7.000;2023-06-10T11:39:05;7.37;;;7.07;;
2313;SDS011;42279;51.388;7.000;2023-06-10T11:41:31;7.30;;;6.90;;
2313;SDS011;42279;51.388;7.000;2023-06-10T11:44:02;7.50;;;7.20;;
2313;SDS011;42279;51.388;7.000;2023-06-10T11:46:29;11.07;;;8.73;;
2313;SDS011;42279;51.388;7.000;2023-06-10T11:48:55;9.13;;;8.73;;
2313;SDS011;42279;51.388;7.000;2023-06-10T11:51:24;8.10;;;7.80;;
2313;SDS011;42279;51.388;7.000;2023-06-10T11:53:52;6.80;;;6.60;;
2313;SDS011;42279;51.388;7.000;2023-06-10T11:56:25;8.73;;;8.27;;
2313;SDS011;42279;51.388;7.000;2023-06-10T11:59:08;7.77;;;7.30;;
2313;SDS011;42279;51.388;7.000;2023-06-10T12:01:51;8.00;;;7.60;;
2313;SDS011;42279;51.388;7.000;2023-06-10T12:04:17;8.83;;;8.43;;
2313;SDS011;42279;51.388;7.000;2023-06-10T12:06:50;9.37;;;8.97;;
2313;SDS011;42279;51.388;7.000;2023-06-10T12:09:21;8.13;;;7.83;;
2313;SDS011;42279;51.388;7.000;2023-06-10T12:12:02;8.57;;;8.07;;
2313;SDS011;42279;51.388;7.000;2023-06-10T12:17:35;14.03;;;12.83;;
2313;SDS011;42279;51.388;7.000;2023-06-10T12:20:06;8.70;;;7.97;;
2313;SDS011;42279;51.388;7.000;2023-06-10T12:25:02;9.53;;;8.70;;
2313;SDS011;42279;51.388;7.000;2023-06-10T12:27:31;8.23;;;7.83;;
2313;SDS011;42279;51.388;7.000;2023-06-10T12:29:58;7.97;;;7.57;;
2313;SDS011;42279;51.388;7.000;2023-06-10T12:35:04;8.83;;;8.20;;
2313;SDS011;42279;51.388;7.000;2023-06-10T12:37:31;11.97;;;11.20;;
2313;SDS011;42279;51.388;7.000;2023-06-10T12:39:59;7.23;;;7.03;;
2313;SDS011;42279;51.388;7.000;2023-06-10T12:42:28;8.70;;;8.20;;
2313;SDS011;42279;51.388;7.000;2023-06-10T12:44:55;7.80;;;7.60;;
2313;SDS011;42279;51.388;7.000;2023-06-10T12:47:29;7.90;;;7.70;;
2313;SDS011;42279;51.388;7.000;2023-06-10T12:50:05;7.70;;;7.30;;
2313;SDS011;42279;51.388;7.000;2023-06-10T12:52:31;7.70;;;7.33;;
2313;SDS011;42279;51.388;7.000;2023-06-10T12:54:57;8.70;;;8.13;;
2313;SDS011;42279;51.388;7.000;2023-06-10T12:57:24;10.33;;;9.93;;
2313;SDS011;42279;51.388;7.000;2023-06-10T12:59:49;8.00;;;7.43;;
2313;SDS011;42279;51.388;7.000;2023-06-10T13:02:18;7.50;;;7.20;;
2313;SDS011;42279;51.388;7.000;2023-06-10T13:04:45;6.97;;;6.77;;
2313;SDS011;42279;51.388;7.000;2023-06-10T13:07:11;7.23;;;6.83;;
2313;SDS011;42279;51.388;7.000;2023-06-10T13:09:37;7.93;;;7.50;;
2313;SDS011;42279;51.388;7.000;2023-06-10T13:12:03;8.00;;;7.60;;
2313;SDS011;42279;51.388;7.000;2023-06-10T13:14:29;7.90;;;7.60;;
2313;SDS011;42279;51.388;7.000;2023-06-10T13:16:55;7.50;;;7.33;;
2313;SDS011;42279;51.388;7.000;2023-06-10T13:19:21;8.73;;;8.33;;
2313;SDS011;42279;51.388;7.000;2023-06-10T13:21:47;7.70;;;7.47;;
2313;SDS011;42279;51.388;7.000;2023-06-10T13:24:13;7.23;;;7.13;;
2313;SDS011;42279;51.388;7.000;2023-06-10T13:26:38;8.90;;;8.30;;
2313;SDS011;42279;51.388;7.000;2023-06-10T13:29:04;9.57;;;7.57;;
2313;SDS011;42279;51.388;7.000;2023-06-10T13:31:30;12.87;;;11.97;;
2313;SDS011;42279;51.388;7.000;2023-06-10T13:33:57;8.23;;;7.70;;
2313;SDS011;42279;51.388;7.000;2023-06-10T13:36:23;8.80;;;8.40;;
2313;SDS011;42279;51.388;7.000;2023-06-10T13:38:49;9.90;;;9.10;;
2313;SDS011;42279;51.388;7.000;2023-06-10T13:41:14;8.63;;;7.77;;
2313;SDS011;42279;51.388;7.000;2023-06-10T13:43:40;8.37;;;7.97;;
2313;SDS011;42279;51.388;7.000;2023-06-10T13:46:06;8.10;;;7.70;;
2313;SDS011;42279;51.388;7.000;2023-06-10T13:48:31;10.23;;;9.20;;
2313;SDS011;42279;51.388;7.000;2023-06-10T13:50:57;9.07;;;8.67;;
2313;SDS011;42279;51.388;7.000;2023-06-10T13:53:24;8.30;;;7.90;;
2313;SDS011;42279;51.388;7.000;2023-06-10T13:55:50;8.37;;;7.97;;
2313;SDS011;42279;51.388;7.000;2023-06-10T13:58:16;8.70;;;8.30;;
2313;SDS011;42279;51.388;7.000;2023-06-10T14:00:41;10.37;;;9.60;;
2313;SDS011;42279;51.388;7.000;2023-06-10T14:03:07;9.37;;;8.80;;
2313;SDS011;42279;51.388;7.000;2023-06-10T14:05:33;9.33;;;8.00;;
2313;SDS011;42279;51.388;7.000;2023-06-10T14:07:59;9.77;;;8.97;;
2313;SDS011;42279;51.388;7.000;2023-06-10T14:10:25;9.40;;;8.70;;
2313;SDS011;42279;51.388;7.000;2023-06-10T14:12:50;8.47;;;8.00;;
2313;SDS011;42279;51.388;7.000;2023-06-10T14:15:16;14.97;;;13.83;;
2313;SDS011;42279;51.388;7.000;2023-06-10T14:17:42;9.17;;;8.77;;
2313;SDS011;42279;51.388;7.000;2023-06-10T14:20:08;9.50;;;8.90;;
2313;SDS011;42279;51.388;7.000;2023-06-10T14:22:34;10.63;;;9.93;;
2313;SDS011;42279;51.388;7.000;2023-06-10T14:25:00;8.20;;;8.00;;
2313;SDS011;42279;51.388;7.000;2023-06-10T14:27:25;8.40;;;8.10;;
2313;SDS011;42279;51.388;7.000;2023-06-10T14:29:51;9.53;;;8.70;;
2313;SDS011;42279;51.388;7.000;2023-06-10T14:32:16;9.27;;;8.40;;
2313;SDS011;42279;51.388;7.000;2023-06-10T14:34:42;8.00;;;7.70;;
2313;SDS011;42279;51.388;7.000;2023-06-10T14:37:09;10.87;;;8.63;;
2313;SDS011;42279;51.388;7.000;2023-06-10T14:39:35;8.70;;;8.10;;
2313;SDS011;42279;51.388;7.000;2023-06-10T14:42:01;8.67;;;8.27;;
2313;SDS011;42279;51.388;7.000;2023-06-10T14:44:27;9.87;;;9.37;;
2313;SDS011;42279;51.388;7.000;2023-06-10T14:46:52;9.30;;;8.57;;
2313;SDS011;42279;51.388;7.000;2023-06-10T14:49:18;8.83;;;8.53;;
2313;SDS011;42279;51.388;7.000;2023-06-10T14:51:43;9.27;;;8.60;;
2313;SDS011;42279;51.388;7.000;2023-06-10T14:54:09;9.37;;;8.90;;
2313;SDS011;42279;51.388;7.000;2023-06-10T14:56:35;9.80;;;9.10;;
2313;SDS011;42279;51.388;7.000;2023-06-10T14:59:01;13.53;;;12.57;;
2313;SDS011;42279;51.388;7.000;2023-06-10T15:01:26;9.20;;;8.60;;
2313;SDS011;42279;51.388;7.000;2023-06-10T15:03:52;8.77;;;8.13;;
2313;SDS011;42279;51.388;7.000;2023-06-10T15:06:18;9.10;;;8.60;;
2313;SDS011;42279;51.388;7.000;2023-06-10T15:08:46;10.60;;;9.90;;
2313;SDS011;42279;51.388;7.000;2023-06-10T15:11:13;8.70;;;8.23;;
2313;SDS011;42279;51.388;7.000;2023-06-10T15:13:39;9.67;;;8.97;;
2313;SDS011;42279;51.388;7.000;2023-06-10T15:16:05;8.63;;;8.27;;
2313;SDS011;42279;51.388;7.000;2023-06-10T15:18:31;10.00;;;9.30;;
2313;SDS011;42279;51.388;7.000;2023-06-10T15:20:57;9.70;;;9.10;;